EJU45FT LFPO-LGRP
Flight info
| Callsign | EJU45FT |
|---|---|
| Flight time | N/A |
| Altitude | 35000 |
| Route | BUBLI2H BUBLI DCT LUVAL DCT BEGAR DCT TRA DCT GAMSA DCT GEDSO DCT VEKEN DCT NEMEK DCT NAVSU/N0448F370 DCT SOLGU DCT RUDAR DCT OSLUD DCT BUNEX DCT MODRA DCT MEDUX UM867 KOGAT DCT ERANA DCT TSL DCT MES UN139 LURUS UL995 CODIC CODIC1K |
| Aircraft | A320/M-SDE3FGHIRWY/LB1 |
Departure
| Time | 2026-05-07 15:01 |
|---|---|
| Airport | Paris-Orly Airport (LFPO) |
Arrival
| Time | N/A |
|---|---|
| Airport | Rhodes International Airport "Diagoras" (LGRP) |
| Time | Latitude | Longitude | Altitude | Speed | Heading |
|---|---|---|---|---|---|
| 2026-05-07 14:46 | 48.72839 | 2.35752 | 296 ft | 0 kts | 15° |
| 2026-05-07 14:57 | 48.72837 | 2.35752 | 296 ft | 1 kts | 15° |
| 2026-05-07 14:57 | 48.72831 | 2.35749 | 300 ft | 1 kts | 15° |
| 2026-05-07 14:57 | 48.72819 | 2.35744 | 297 ft | 3 kts | 16° |
| 2026-05-07 14:57 | 48.72796 | 2.35739 | 298 ft | 0 kts | 301° |
| 2026-05-07 14:58 | 48.72792 | 2.35725 | 300 ft | 6 kts | 255° |
| 2026-05-07 14:58 | 48.72773 | 2.35631 | 299 ft | 10 kts | 252° |
| 2026-05-07 14:58 | 48.72753 | 2.35538 | 297 ft | 11 kts | 250° |
| 2026-05-07 14:58 | 48.72664 | 2.35512 | 300 ft | 17 kts | 162° |
| 2026-05-07 14:59 | 48.72547 | 2.35559 | 297 ft | 17 kts | 162° |
| 2026-05-07 14:59 | 48.72429 | 2.35610 | 298 ft | 18 kts | 165° |
| 2026-05-07 14:59 | 48.72308 | 2.35625 | 295 ft | 18 kts | 199° |
| 2026-05-07 14:59 | 48.72193 | 2.35613 | 297 ft | 17 kts | 166° |
| 2026-05-07 15:00 | 48.72085 | 2.35667 | 298 ft | 16 kts | 152° |
| 2026-05-07 15:00 | 48.72011 | 2.35797 | 298 ft | 18 kts | 122° |
| 2026-05-07 15:00 | 48.71968 | 2.36005 | 296 ft | 22 kts | 70° |
| 2026-05-07 15:00 | 48.72015 | 2.36260 | 300 ft | 33 kts | 73° |
| 2026-05-07 15:01 | 48.72133 | 2.36893 | 299 ft | 94 kts | 75° |
| 2026-05-07 15:01 | 48.72358 | 2.38122 | 298 ft | 146 kts | 74° |
| 2026-05-07 15:01 | 48.72655 | 2.39750 | 578 ft | 164 kts | 75° |
| 2026-05-07 15:01 | 48.72957 | 2.41407 | 1292 ft | 163 kts | 74° |
| 2026-05-07 15:02 | 48.73270 | 2.43104 | 1819 ft | 176 kts | 73° |
| 2026-05-07 15:02 | 48.73621 | 2.44997 | 2108 ft | 198 kts | 73° |
| 2026-05-07 15:02 | 48.74006 | 2.47142 | 2399 ft | 224 kts | 78° |
| 2026-05-07 15:02 | 48.74178 | 2.49614 | 2777 ft | 248 kts | 85° |
| 2026-05-07 15:03 | 48.74272 | 2.52300 | 3413 ft | 259 kts | 87° |
| 2026-05-07 15:03 | 48.74348 | 2.55051 | 4241 ft | 263 kts | 86° |
| 2026-05-07 15:03 | 48.74494 | 2.57834 | 5083 ft | 267 kts | 84° |
| 2026-05-07 15:03 | 48.74703 | 2.60651 | 5905 ft | 271 kts | 83° |
| 2026-05-07 15:04 | 48.74939 | 2.63502 | 6711 ft | 274 kts | 83° |
| 2026-05-07 15:04 | 48.75181 | 2.66387 | 7467 ft | 278 kts | 83° |
| 2026-05-07 15:04 | 48.75425 | 2.69320 | 8232 ft | 282 kts | 83° |
| 2026-05-07 15:04 | 48.75664 | 2.72292 | 8998 ft | 286 kts | 84° |
| 2026-05-07 15:05 | 48.75902 | 2.75300 | 9756 ft | 290 kts | 84° |
| 2026-05-07 15:05 | 48.76139 | 2.78375 | 10330 ft | 302 kts | 84° |
| 2026-05-07 15:05 | 48.76389 | 2.81657 | 10533 ft | 325 kts | 84° |
| 2026-05-07 15:05 | 48.76656 | 2.85185 | 10696 ft | 348 kts | 84° |
| 2026-05-07 15:06 | 48.76937 | 2.88925 | 10977 ft | 364 kts | 84° |
| 2026-05-07 15:06 | 48.77225 | 2.92780 | 11538 ft | 370 kts | 84° |
| 2026-05-07 15:06 | 48.77514 | 2.96633 | 12166 ft | 375 kts | 84° |
| 2026-05-07 15:06 | 48.77857 | 3.00575 | 12792 ft | 379 kts | 81° |
| 2026-05-07 15:07 | 48.78298 | 3.04536 | 13424 ft | 384 kts | 79° |
| 2026-05-07 15:07 | 48.78798 | 3.08532 | 14026 ft | 388 kts | 79° |
| 2026-05-07 15:07 | 48.79321 | 3.12563 | 14601 ft | 391 kts | 79° |
| 2026-05-07 15:07 | 48.79843 | 3.16626 | 15167 ft | 395 kts | 79° |
| 2026-05-07 15:08 | 48.80354 | 3.20739 | 15729 ft | 398 kts | 79° |
| 2026-05-07 15:08 | 48.80856 | 3.24891 | 16292 ft | 401 kts | 80° |
| 2026-05-07 15:08 | 48.81349 | 3.29068 | 16852 ft | 405 kts | 80° |
| 2026-05-07 15:08 | 48.81839 | 3.33290 | 17408 ft | 408 kts | 80° |
| 2026-05-07 15:09 | 48.82144 | 3.37587 | 17952 ft | 412 kts | 89° |
| 2026-05-07 15:09 | 48.81997 | 3.41940 | 18472 ft | 415 kts | 96° |
| 2026-05-07 15:09 | 48.81713 | 3.46309 | 18952 ft | 418 kts | 96° |
| 2026-05-07 15:09 | 48.81428 | 3.50705 | 19429 ft | 420 kts | 96° |
| 2026-05-07 15:10 | 48.81143 | 3.55133 | 19934 ft | 423 kts | 96° |
| 2026-05-07 15:10 | 48.80858 | 3.59585 | 20403 ft | 426 kts | 96° |
| 2026-05-07 15:10 | 48.80570 | 3.64074 | 20849 ft | 428 kts | 96° |
| 2026-05-07 15:10 | 48.80278 | 3.68588 | 21296 ft | 431 kts | 96° |
| 2026-05-07 15:11 | 48.79981 | 3.73124 | 21743 ft | 433 kts | 96° |
| 2026-05-07 15:11 | 48.79681 | 3.77682 | 22168 ft | 436 kts | 96° |
| 2026-05-07 15:11 | 48.79378 | 3.82269 | 22586 ft | 438 kts | 96° |
| 2026-05-07 15:11 | 48.79076 | 3.86877 | 22977 ft | 441 kts | 96° |
| 2026-05-07 15:12 | 48.78773 | 3.91511 | 23360 ft | 443 kts | 96° |
| 2026-05-07 15:12 | 48.78464 | 3.96173 | 23708 ft | 445 kts | 96° |
| 2026-05-07 15:12 | 48.78146 | 4.00851 | 24023 ft | 448 kts | 96° |
| 2026-05-07 15:12 | 48.77827 | 4.05499 | 24325 ft | 450 kts | 96° |
| 2026-05-07 15:13 | 48.77391 | 4.10205 | 24622 ft | 451 kts | 103° |
| 2026-05-07 15:13 | 48.76496 | 4.14757 | 24913 ft | 452 kts | 112° |
| 2026-05-07 15:13 | 48.75144 | 4.19052 | 25204 ft | 453 kts | 121° |
| 2026-05-07 15:13 | 48.73398 | 4.23024 | 25492 ft | 453 kts | 127° |
| 2026-05-07 15:14 | 48.71566 | 4.26924 | 25770 ft | 455 kts | 127° |
| 2026-05-07 15:14 | 48.69728 | 4.30845 | 26051 ft | 457 kts | 127° |
| 2026-05-07 15:14 | 48.67884 | 4.34773 | 26328 ft | 459 kts | 127° |
| 2026-05-07 15:14 | 48.66032 | 4.38710 | 26584 ft | 461 kts | 127° |
| 2026-05-07 15:15 | 48.64169 | 4.42660 | 26845 ft | 462 kts | 127° |
| 2026-05-07 15:15 | 48.62300 | 4.46619 | 27106 ft | 464 kts | 127° |
| 2026-05-07 15:15 | 48.60419 | 4.50599 | 27340 ft | 465 kts | 127° |
| 2026-05-07 15:15 | 48.58526 | 4.54597 | 27575 ft | 467 kts | 127° |
| 2026-05-07 15:16 | 48.56635 | 4.58581 | 27801 ft | 468 kts | 127° |
| 2026-05-07 15:16 | 48.54730 | 4.62584 | 28018 ft | 470 kts | 127° |
| 2026-05-07 15:16 | 48.52816 | 4.66596 | 28244 ft | 471 kts | 127° |
| 2026-05-07 15:16 | 48.50908 | 4.70597 | 28551 ft | 470 kts | 127° |
| 2026-05-07 15:17 | 48.48998 | 4.74603 | 28853 ft | 469 kts | 127° |
| 2026-05-07 15:17 | 48.47091 | 4.78597 | 29157 ft | 468 kts | 127° |
| 2026-05-07 15:17 | 48.45194 | 4.82569 | 29450 ft | 468 kts | 127° |
| 2026-05-07 15:17 | 48.43260 | 4.86615 | 29752 ft | 468 kts | 127° |
| 2026-05-07 15:18 | 48.41354 | 4.90591 | 30045 ft | 468 kts | 127° |
| 2026-05-07 15:18 | 48.39449 | 4.94551 | 30305 ft | 467 kts | 127° |
| 2026-05-07 15:18 | 48.37541 | 4.98514 | 30545 ft | 467 kts | 127° |
| 2026-05-07 15:18 | 48.35634 | 5.02470 | 30784 ft | 467 kts | 127° |
| 2026-05-07 15:19 | 48.33723 | 5.06426 | 31005 ft | 467 kts | 127° |
| 2026-05-07 15:19 | 48.31816 | 5.10377 | 31246 ft | 467 kts | 126° |
| 2026-05-07 15:19 | 48.30157 | 5.14568 | 31474 ft | 469 kts | 117° |
| 2026-05-07 15:19 | 48.29289 | 5.17535 | 31629 ft | 470 kts | 111° |
| 2026-05-07 15:20 | 48.28119 | 5.23871 | 31929 ft | 471 kts | 103° |
| 2026-05-07 15:20 | 48.27656 | 5.27060 | 32079 ft | 471 kts | 103° |
| 2026-05-07 15:20 | 48.26953 | 5.31864 | 32309 ft | 472 kts | 103° |
| 2026-05-07 15:20 | 48.26240 | 5.36680 | 32549 ft | 472 kts | 103° |
| 2026-05-07 15:21 | 48.25526 | 5.41473 | 32780 ft | 472 kts | 103° |
| 2026-05-07 15:21 | 48.24803 | 5.46282 | 33015 ft | 472 kts | 103° |
| 2026-05-07 15:21 | 48.24081 | 5.51077 | 33249 ft | 472 kts | 103° |
| 2026-05-07 15:21 | 48.23358 | 5.55881 | 33479 ft | 472 kts | 103° |
| 2026-05-07 15:22 | 48.22632 | 5.60687 | 33704 ft | 472 kts | 103° |
| 2026-05-07 15:22 | 48.21905 | 5.65486 | 33936 ft | 472 kts | 103° |
| 2026-05-07 15:22 | 48.21178 | 5.70289 | 34149 ft | 472 kts | 103° |
| 2026-05-07 15:22 | 48.20439 | 5.75144 | 34346 ft | 472 kts | 103° |
| 2026-05-07 15:23 | 48.19703 | 5.79949 | 34546 ft | 472 kts | 103° |
| 2026-05-07 15:23 | 48.18969 | 5.84732 | 34741 ft | 472 kts | 104° |
| 2026-05-07 15:23 | 48.18229 | 5.89530 | 34926 ft | 472 kts | 104° |
| 2026-05-07 15:23 | 48.17484 | 5.94332 | 35039 ft | 473 kts | 104° |
| 2026-05-07 15:24 | 48.15988 | 6.03971 | 35056 ft | 475 kts | 104° |
| 2026-05-07 15:24 | 48.14488 | 6.13618 | 35056 ft | 476 kts | 104° |
| 2026-05-07 15:25 | 48.12974 | 6.23279 | 35056 ft | 476 kts | 104° |
| 2026-05-07 15:25 | 48.11452 | 6.32928 | 35053 ft | 476 kts | 104° |
| 2026-05-07 15:26 | 48.09911 | 6.42636 | 35050 ft | 476 kts | 104° |
| 2026-05-07 15:26 | 48.08381 | 6.52207 | 35046 ft | 476 kts | 104° |
| 2026-05-07 15:27 | 48.06832 | 6.61837 | 35043 ft | 477 kts | 104° |
| 2026-05-07 15:27 | 48.05265 | 6.71554 | 35042 ft | 477 kts | 104° |
| 2026-05-07 15:28 | 48.03695 | 6.81250 | 35040 ft | 477 kts | 104° |
| 2026-05-07 15:28 | 48.02133 | 6.90829 | 35041 ft | 478 kts | 104° |
| 2026-05-07 15:29 | 48.00542 | 7.00521 | 35044 ft | 478 kts | 104° |
| 2026-05-07 15:29 | 47.98942 | 7.10166 | 35043 ft | 478 kts | 104° |
| 2026-05-07 15:30 | 47.97354 | 7.19718 | 35046 ft | 478 kts | 104° |
| 2026-05-07 15:30 | 47.95733 | 7.29425 | 35048 ft | 478 kts | 105° |
| 2026-05-07 15:31 | 47.94112 | 7.39058 | 35048 ft | 478 kts | 105° |
| 2026-05-07 15:31 | 47.92482 | 7.48663 | 35040 ft | 478 kts | 105° |
| 2026-05-07 15:32 | 47.90805 | 7.58279 | 35031 ft | 478 kts | 109° |
| 2026-05-07 15:32 | 47.88516 | 7.67562 | 35026 ft | 477 kts | 112° |
| 2026-05-07 15:33 | 47.86169 | 7.76827 | 35022 ft | 478 kts | 112° |
| 2026-05-07 15:33 | 47.83802 | 7.86149 | 35018 ft | 478 kts | 112° |
| 2026-05-07 15:34 | 47.81445 | 7.95382 | 35013 ft | 478 kts | 112° |
| 2026-05-07 15:34 | 47.79065 | 8.04643 | 35011 ft | 478 kts | 112° |
| 2026-05-07 15:35 | 47.76680 | 8.13896 | 35012 ft | 479 kts | 112° |
| 2026-05-07 15:35 | 47.74304 | 8.23143 | 35014 ft | 479 kts | 112° |
| 2026-05-07 15:36 | 47.71964 | 8.32189 | 35014 ft | 479 kts | 112° |
| 2026-05-07 15:36 | 47.69513 | 8.41577 | 35015 ft | 480 kts | 112° |
| 2026-05-07 15:37 | 47.67204 | 8.50882 | 35018 ft | 480 kts | 110° |
| 2026-05-07 15:37 | 47.65124 | 8.60315 | 35019 ft | 481 kts | 109° |
| 2026-05-07 15:38 | 47.63073 | 8.69765 | 35019 ft | 481 kts | 109° |
| 2026-05-07 15:38 | 47.60947 | 8.79173 | 35020 ft | 481 kts | 110° |
| 2026-05-07 15:39 | 47.58774 | 8.88551 | 35024 ft | 482 kts | 110° |
| 2026-05-07 15:39 | 47.56593 | 8.97949 | 35022 ft | 482 kts | 110° |
| 2026-05-07 15:40 | 47.54424 | 9.07333 | 35020 ft | 482 kts | 110° |
| 2026-05-07 15:40 | 47.52248 | 9.16727 | 35023 ft | 483 kts | 110° |
| 2026-05-07 15:41 | 47.50062 | 9.26140 | 35027 ft | 483 kts | 110° |
| 2026-05-07 15:41 | 47.47864 | 9.35517 | 35035 ft | 483 kts | 110° |
| 2026-05-07 15:42 | 47.45657 | 9.44905 | 35042 ft | 483 kts | 110° |
| 2026-05-07 15:42 | 47.43431 | 9.54301 | 35034 ft | 483 kts | 111° |
| 2026-05-07 15:43 | 47.41210 | 9.63672 | 35028 ft | 483 kts | 109° |
| 2026-05-07 15:43 | 47.39724 | 9.73363 | 35025 ft | 484 kts | 102° |
| 2026-05-07 15:44 | 47.38388 | 9.83106 | 35022 ft | 484 kts | 102° |
| 2026-05-07 15:44 | 47.37026 | 9.92857 | 35020 ft | 484 kts | 103° |
| 2026-05-07 15:45 | 47.35653 | 10.02595 | 35015 ft | 485 kts | 103° |
| 2026-05-07 15:45 | 47.34277 | 10.12326 | 35015 ft | 485 kts | 103° |
| 2026-05-07 15:46 | 47.32874 | 10.22239 | 35030 ft | 486 kts | 103° |
| 2026-05-07 15:47 | 47.31708 | 10.30402 | 35018 ft | 485 kts | 103° |
| 2026-05-07 15:47 | 47.30298 | 10.40136 | 35012 ft | 485 kts | 103° |
| 2026-05-07 15:48 | 47.28889 | 10.49857 | 35010 ft | 485 kts | 103° |
| 2026-05-07 15:48 | 47.27473 | 10.59584 | 35022 ft | 485 kts | 103° |
| 2026-05-07 15:49 | 47.26047 | 10.69307 | 35006 ft | 486 kts | 103° |
| 2026-05-07 15:49 | 47.24612 | 10.79031 | 35015 ft | 487 kts | 104° |
| 2026-05-07 15:50 | 47.23168 | 10.88766 | 35008 ft | 487 kts | 104° |
| 2026-05-07 15:50 | 47.21705 | 10.98502 | 35002 ft | 487 kts | 104° |
| 2026-05-07 15:51 | 47.20243 | 11.08236 | 35007 ft | 487 kts | 104° |
| 2026-05-07 15:51 | 47.18772 | 11.17957 | 34993 ft | 487 kts | 104° |
| 2026-05-07 15:52 | 47.17298 | 11.27665 | 35002 ft | 488 kts | 104° |
| 2026-05-07 15:52 | 47.15808 | 11.37404 | 34987 ft | 488 kts | 104° |
| 2026-05-07 15:53 | 47.14307 | 11.47143 | 34985 ft | 488 kts | 104° |
| 2026-05-07 15:53 | 47.12802 | 11.56864 | 34989 ft | 489 kts | 105° |
| 2026-05-07 15:54 | 47.11281 | 11.66600 | 34991 ft | 489 kts | 105° |
| 2026-05-07 15:54 | 47.09746 | 11.76344 | 34995 ft | 490 kts | 105° |
| 2026-05-07 15:55 | 47.08125 | 11.86044 | 35002 ft | 489 kts | 111° |
| 2026-05-07 15:55 | 47.05363 | 11.95074 | 35004 ft | 485 kts | 119° |
| 2026-05-07 15:56 | 47.02384 | 12.03956 | 35004 ft | 485 kts | 119° |
| 2026-05-07 15:56 | 46.99414 | 12.12835 | 35016 ft | 485 kts | 119° |
| 2026-05-07 15:57 | 46.96440 | 12.21723 | 35024 ft | 486 kts | 119° |
| 2026-05-07 15:57 | 46.93468 | 12.30526 | 35027 ft | 485 kts | 120° |
| 2026-05-07 15:58 | 46.90463 | 12.39373 | 35021 ft | 485 kts | 120° |
| 2026-05-07 15:58 | 46.87456 | 12.48213 | 35016 ft | 486 kts | 120° |
| 2026-05-07 15:59 | 46.84444 | 12.57065 | 35003 ft | 486 kts | 120° |
| 2026-05-07 15:59 | 46.81414 | 12.65904 | 35002 ft | 486 kts | 120° |
| 2026-05-07 16:00 | 46.78382 | 12.74725 | 34986 ft | 486 kts | 120° |
| 2026-05-07 16:00 | 46.75342 | 12.83535 | 34981 ft | 486 kts | 120° |
| 2026-05-07 16:01 | 46.72301 | 12.92338 | 34977 ft | 486 kts | 121° |
| 2026-05-07 16:01 | 46.69253 | 13.01127 | 34973 ft | 487 kts | 121° |
| 2026-05-07 16:02 | 46.66186 | 13.09918 | 34978 ft | 488 kts | 121° |
| 2026-05-07 16:02 | 46.63103 | 13.18717 | 34988 ft | 488 kts | 121° |
| 2026-05-07 16:03 | 46.60037 | 13.27462 | 34977 ft | 488 kts | 121° |
| 2026-05-07 16:03 | 46.56940 | 13.36265 | 34964 ft | 487 kts | 123° |
| 2026-05-07 16:04 | 46.53184 | 13.44332 | 34956 ft | 481 kts | 131° |
| 2026-05-07 16:04 | 46.49243 | 13.52198 | 34948 ft | 481 kts | 131° |
| 2026-05-07 16:05 | 46.45308 | 13.60046 | 34952 ft | 481 kts | 131° |
| 2026-05-07 16:05 | 46.41367 | 13.67895 | 34946 ft | 481 kts | 131° |
| 2026-05-07 16:06 | 46.37422 | 13.75734 | 34951 ft | 481 kts | 131° |
| 2026-05-07 16:06 | 46.33471 | 13.83547 | 34944 ft | 480 kts | 131° |
| 2026-05-07 16:07 | 46.29517 | 13.91338 | 34943 ft | 480 kts | 131° |
| 2026-05-07 16:07 | 46.25566 | 13.99119 | 34943 ft | 480 kts | 131° |
| 2026-05-07 16:08 | 46.21642 | 14.06833 | 34942 ft | 479 kts | 132° |
| 2026-05-07 16:08 | 46.17675 | 14.14577 | 34936 ft | 479 kts | 132° |
| 2026-05-07 16:09 | 46.13715 | 14.22302 | 34940 ft | 479 kts | 132° |
| 2026-05-07 16:09 | 46.09759 | 14.30012 | 34938 ft | 478 kts | 133° |
| 2026-05-07 16:10 | 46.05795 | 14.37703 | 34958 ft | 478 kts | 133° |
| 2026-05-07 16:10 | 46.01826 | 14.45378 | 34954 ft | 478 kts | 133° |
| 2026-05-07 16:11 | 45.97850 | 14.53044 | 34949 ft | 478 kts | 133° |
| 2026-05-07 16:11 | 45.93880 | 14.60694 | 34949 ft | 478 kts | 133° |
| 2026-05-07 16:12 | 45.89898 | 14.68334 | 34949 ft | 477 kts | 133° |
| 2026-05-07 16:12 | 45.85907 | 14.75958 | 34960 ft | 478 kts | 133° |
| 2026-05-07 16:13 | 45.81910 | 14.83581 | 34965 ft | 478 kts | 133° |
| 2026-05-07 16:13 | 45.77912 | 14.91205 | 34966 ft | 478 kts | 133° |
| 2026-05-07 16:14 | 45.73879 | 14.98878 | 34969 ft | 478 kts | 133° |
| 2026-05-07 16:14 | 45.69868 | 15.06464 | 34961 ft | 477 kts | 133° |
| 2026-05-07 16:15 | 45.65876 | 15.13996 | 34957 ft | 477 kts | 133° |
| 2026-05-07 16:15 | 45.61856 | 15.21568 | 34961 ft | 477 kts | 133° |
| 2026-05-07 16:16 | 45.57829 | 15.29128 | 34966 ft | 477 kts | 134° |
| 2026-05-07 16:16 | 45.53611 | 15.36382 | 34968 ft | 473 kts | 138° |
| 2026-05-07 16:17 | 45.49177 | 15.43293 | 34974 ft | 472 kts | 139° |
| 2026-05-07 16:17 | 45.44726 | 15.50183 | 34984 ft | 473 kts | 138° |
| 2026-05-07 16:18 | 45.40325 | 15.57166 | 34984 ft | 473 kts | 137° |
| 2026-05-07 16:18 | 45.35952 | 15.64167 | 34989 ft | 473 kts | 137° |
| 2026-05-07 16:19 | 45.31604 | 15.71108 | 34991 ft | 472 kts | 137° |
| 2026-05-07 16:19 | 45.27217 | 15.78064 | 34993 ft | 472 kts | 138° |
| 2026-05-07 16:20 | 45.22825 | 15.84976 | 34996 ft | 471 kts | 138° |
| 2026-05-07 16:20 | 45.18434 | 15.91884 | 34996 ft | 471 kts | 137° |
| 2026-05-07 16:21 | 45.14035 | 15.98802 | 34997 ft | 471 kts | 138° |
| 2026-05-07 16:21 | 45.09630 | 16.05686 | 34997 ft | 472 kts | 138° |
| 2026-05-07 16:22 | 45.05217 | 16.12569 | 35001 ft | 472 kts | 138° |
| 2026-05-07 16:22 | 45.01559 | 16.18280 | 34998 ft | 471 kts | 137° |
| 2026-05-07 16:23 | 44.97150 | 16.25151 | 35000 ft | 471 kts | 137° |
| 2026-05-07 16:23 | 44.92731 | 16.32013 | 35007 ft | 472 kts | 138° |
| 2026-05-07 16:24 | 44.88312 | 16.38860 | 35007 ft | 472 kts | 138° |
| 2026-05-07 16:24 | 44.83880 | 16.45706 | 35005 ft | 472 kts | 138° |
| 2026-05-07 16:25 | 44.79455 | 16.52521 | 35003 ft | 471 kts | 138° |
| 2026-05-07 16:25 | 44.75015 | 16.59333 | 35002 ft | 472 kts | 138° |
| 2026-05-07 16:26 | 44.70570 | 16.66152 | 35006 ft | 473 kts | 138° |
| 2026-05-07 16:26 | 44.66126 | 16.72951 | 35004 ft | 473 kts | 138° |
| 2026-05-07 16:27 | 44.61671 | 16.79754 | 35007 ft | 473 kts | 138° |
| 2026-05-07 16:27 | 44.57215 | 16.86527 | 35008 ft | 473 kts | 138° |
| 2026-05-07 16:28 | 44.52798 | 16.93399 | 35007 ft | 476 kts | 135° |
| 2026-05-07 16:28 | 44.48679 | 17.00695 | 35015 ft | 478 kts | 133° |
| 2026-05-07 16:29 | 44.44667 | 17.08115 | 35029 ft | 478 kts | 133° |
| 2026-05-07 16:29 | 44.40597 | 17.15467 | 35036 ft | 477 kts | 134° |
| 2026-05-07 16:30 | 44.36466 | 17.22736 | 35038 ft | 477 kts | 134° |
| 2026-05-07 16:30 | 44.32314 | 17.29979 | 35029 ft | 477 kts | 134° |
| 2026-05-07 16:31 | 44.28177 | 17.37215 | 35038 ft | 478 kts | 134° |
| 2026-05-07 16:31 | 44.24027 | 17.44474 | 35038 ft | 478 kts | 134° |
| 2026-05-07 16:32 | 44.19911 | 17.51673 | 35038 ft | 478 kts | 134° |
| 2026-05-07 16:32 | 44.15751 | 17.58924 | 35036 ft | 479 kts | 134° |
| 2026-05-07 16:33 | 44.11580 | 17.66151 | 35034 ft | 479 kts | 134° |
| 2026-05-07 16:33 | 44.07454 | 17.73443 | 35030 ft | 480 kts | 133° |
| 2026-05-07 16:34 | 44.03374 | 17.80811 | 35026 ft | 481 kts | 133° |
| 2026-05-07 16:34 | 43.99287 | 17.88173 | 35028 ft | 481 kts | 133° |
| 2026-05-07 16:35 | 43.95171 | 17.95517 | 35054 ft | 482 kts | 133° |
| 2026-05-07 16:35 | 43.93105 | 17.99183 | 35269 ft | 482 kts | 133° |
| 2026-05-07 16:35 | 43.91035 | 18.02853 | 35489 ft | 481 kts | 133° |
| 2026-05-07 16:35 | 43.88976 | 18.06500 | 35684 ft | 480 kts | 133° |
| 2026-05-07 16:36 | 43.86916 | 18.10139 | 35883 ft | 480 kts | 133° |
| 2026-05-07 16:36 | 43.84862 | 18.13765 | 36066 ft | 479 kts | 133° |
| 2026-05-07 16:36 | 43.82800 | 18.17405 | 36242 ft | 478 kts | 133° |
| 2026-05-07 16:36 | 43.80747 | 18.21032 | 36407 ft | 478 kts | 133° |
| 2026-05-07 16:37 | 43.78700 | 18.24651 | 36587 ft | 477 kts | 133° |
| 2026-05-07 16:37 | 43.76654 | 18.28263 | 36761 ft | 476 kts | 133° |
| 2026-05-07 16:37 | 43.74608 | 18.31861 | 36928 ft | 476 kts | 133° |
| 2026-05-07 16:37 | 43.72560 | 18.35453 | 37042 ft | 475 kts | 133° |
| 2026-05-07 16:38 | 43.70518 | 18.39033 | 37061 ft | 475 kts | 133° |
| 2026-05-07 16:38 | 43.66428 | 18.46180 | 37053 ft | 474 kts | 133° |
| 2026-05-07 16:39 | 43.62333 | 18.53324 | 37055 ft | 474 kts | 133° |
| 2026-05-07 16:39 | 43.58249 | 18.60456 | 37052 ft | 474 kts | 133° |
| 2026-05-07 16:40 | 43.54162 | 18.67575 | 37057 ft | 473 kts | 133° |
| 2026-05-07 16:40 | 43.50070 | 18.74678 | 37065 ft | 473 kts | 133° |
| 2026-05-07 16:41 | 43.45964 | 18.81775 | 37056 ft | 472 kts | 133° |
| 2026-05-07 16:41 | 43.41862 | 18.88836 | 37065 ft | 473 kts | 133° |
| 2026-05-07 16:42 | 43.37775 | 18.95852 | 37069 ft | 473 kts | 133° |
| 2026-05-07 16:42 | 43.33667 | 19.02908 | 37064 ft | 473 kts | 132° |
| 2026-05-07 16:43 | 43.29553 | 19.09960 | 37070 ft | 473 kts | 132° |
| 2026-05-07 16:43 | 43.25425 | 19.17002 | 37070 ft | 473 kts | 132° |
| 2026-05-07 16:44 | 43.21299 | 19.24018 | 37069 ft | 472 kts | 132° |
| 2026-05-07 16:44 | 43.17167 | 19.31020 | 37070 ft | 472 kts | 132° |
| 2026-05-07 16:45 | 43.13033 | 19.38020 | 37068 ft | 472 kts | 132° |
| 2026-05-07 16:45 | 43.08924 | 19.44969 | 37066 ft | 472 kts | 132° |
| 2026-05-07 16:46 | 43.04786 | 19.51960 | 37063 ft | 473 kts | 132° |
| 2026-05-07 16:46 | 43.00645 | 19.58958 | 37062 ft | 473 kts | 132° |
| 2026-05-07 16:47 | 42.96488 | 19.65939 | 37062 ft | 473 kts | 132° |
| 2026-05-07 16:47 | 42.92329 | 19.72913 | 37064 ft | 474 kts | 132° |
| 2026-05-07 16:48 | 42.88162 | 19.79884 | 37067 ft | 474 kts | 132° |
| 2026-05-07 16:48 | 42.83978 | 19.86846 | 37076 ft | 474 kts | 132° |
| 2026-05-07 16:49 | 42.79801 | 19.93804 | 37086 ft | 475 kts | 132° |
| 2026-05-07 16:49 | 42.75615 | 20.00765 | 37088 ft | 474 kts | 132° |
| 2026-05-07 16:50 | 42.71424 | 20.07704 | 37085 ft | 474 kts | 132° |
| 2026-05-07 16:50 | 42.67255 | 20.14579 | 37083 ft | 474 kts | 132° |
| 2026-05-07 16:51 | 42.63054 | 20.21509 | 37083 ft | 475 kts | 132° |
| 2026-05-07 16:51 | 42.58846 | 20.28441 | 37094 ft | 475 kts | 132° |
| 2026-05-07 16:52 | 42.54636 | 20.35347 | 37088 ft | 475 kts | 132° |
| 2026-05-07 16:52 | 42.50419 | 20.42237 | 37092 ft | 475 kts | 132° |
| 2026-05-07 16:53 | 42.46202 | 20.49125 | 37091 ft | 475 kts | 132° |
| 2026-05-07 16:53 | 42.41981 | 20.56002 | 37094 ft | 475 kts | 132° |
| 2026-05-07 16:54 | 42.37750 | 20.62871 | 37095 ft | 475 kts | 132° |
| 2026-05-07 16:54 | 42.33510 | 20.69734 | 37101 ft | 475 kts | 132° |
| 2026-05-07 16:55 | 42.29270 | 20.76586 | 37095 ft | 475 kts | 132° |
| 2026-05-07 16:55 | 42.25017 | 20.83436 | 37113 ft | 476 kts | 132° |
| 2026-05-07 16:56 | 42.20760 | 20.90286 | 37114 ft | 476 kts | 132° |
| 2026-05-07 16:56 | 42.14379 | 21.00537 | 37133 ft | 476 kts | 132° |
| 2026-05-07 16:57 | 42.09977 | 21.07183 | 37123 ft | 473 kts | 139° |
| 2026-05-07 16:57 | 42.05184 | 21.13268 | 37129 ft | 473 kts | 139° |
| 2026-05-07 16:58 | 42.00406 | 21.19342 | 37114 ft | 473 kts | 139° |
| 2026-05-07 16:58 | 41.95615 | 21.25420 | 37122 ft | 473 kts | 139° |
| 2026-05-07 16:59 | 41.90824 | 21.31475 | 37114 ft | 473 kts | 139° |
| 2026-05-07 16:59 | 41.86026 | 21.37517 | 37106 ft | 472 kts | 139° |
| 2026-05-07 17:00 | 41.81266 | 21.43512 | 37097 ft | 473 kts | 139° |
| 2026-05-07 17:00 | 41.76468 | 21.49533 | 37111 ft | 473 kts | 139° |
| 2026-05-07 17:01 | 41.71657 | 21.55555 | 37117 ft | 473 kts | 139° |